Time;durP1;ratioP1;P1;durP2;ratioP2;P2;SDS_P1;SDS_P2;PMS_P1;PMS_P2;Temp;Humidity;BMP_temperature;BMP_pressure;BME280_temperature;BME280_humidity;BME280_pressure;Samples;Min_cycle;Max_cycle;Signal;HPM_P1;HPM_P2
2021/05/15 00:01:25;;;;;;;;;;;10.60;99.90;;;;;;5056906;28;19913;-81
2021/05/15 00:03:50;;;;;;;;;;;10.60;99.90;;;;;;5034105;28;19925;-80
2021/05/15 00:06:16;;;;;;;;;;;10.60;99.90;;;;;;5031914;28;19912;-81
2021/05/15 00:08:41;;;;;;;;;;;10.70;99.90;;;;;;5054041;28;19913;-81
2021/05/15 00:11:07;;;;;;;;;;;10.70;99.90;;;;;;5047606;28;19936;-81
2021/05/15 00:13:33;;;;;;;;;;;10.70;99.90;;;;;;5045403;28;19913;-81
2021/05/15 00:15:58;;;;;;;;;;;10.80;99.90;;;;;;5037856;28;19913;-81
2021/05/15 00:18:24;;;;;;;;;;;10.80;99.90;;;;;;5040915;28;19920;-80
2021/05/15 00:20:49;;;;;;;;;;;10.80;99.90;;;;;;5030650;28;19920;-81
2021/05/15 00:23:15;;;;;;;;;;;10.90;99.90;;;;;;5036078;28;20372;-80
2021/05/15 00:25:40;;;;;;;;;;;10.90;99.90;;;;;;5040993;28;19913;-81
2021/05/15 00:28:06;;;;;;;;;;;10.90;99.90;;;;;;5045467;28;19919;-81
2021/05/15 00:30:31;;;;;;;;;;;11.00;99.90;;;;;;5037794;28;20324;-81
2021/05/15 00:32:57;;;;;;;;;;;11.00;99.90;;;;;;5033671;28;19913;-81
2021/05/15 00:35:22;;;;;;;;;;;11.00;99.90;;;;;;5026131;28;19917;-81
2021/05/15 00:37:48;;;;;;;;;;;11.00;99.90;;;;;;5044877;28;19960;-81
2021/05/15 00:40:14;;;;;;;;;;;11.00;99.90;;;;;;5055461;28;19913;-80
2021/05/15 00:42:39;;;;;;;;;;;11.00;99.90;;;;;;5058392;28;19945;-80
2021/05/15 00:45:06;;;;;;;;;;;11.00;99.90;;;;;;5066462;28;20003;-79
2021/05/15 00:47:32;;;;;;;;;;;10.90;99.90;;;;;;5066423;28;19985;-80
2021/05/15 00:49:58;;;;;;;;;;;10.90;99.90;;;;;;5072079;28;19917;-80
2021/05/15 00:52:27;;;;;;;;;;;10.90;99.90;;;;;;5074258;28;19944;-80
2021/05/15 00:54:53;;;;;;;;;;;10.90;99.90;;;;;;5067743;28;19901;-79
2021/05/15 00:57:19;;;;;;;;;;;10.90;99.90;;;;;;5047698;28;19901;-79
2021/05/15 00:59:44;;;;;;;;;;;10.90;99.90;;;;;;5053669;28;19901;-76
2021/05/15 01:02:10;;;;;;;;;;;11.00;99.90;;;;;;5062443;28;19971;-78
2021/05/15 01:04:37;;;;;;;;;;;11.00;99.90;;;;;;5060555;28;19915;-76
2021/05/15 01:07:03;;;;;;;;;;;11.00;99.90;;;;;;5056110;28;19897;-80
2021/05/15 01:09:28;;;;;;;;;;;11.00;99.90;;;;;;5044167;28;20396;-80
2021/05/15 01:11:54;;;;;;;;;;;11.00;99.90;;;;;;5059345;28;19913;-79
2021/05/15 01:14:19;;;;;;;;;;;11.10;99.90;;;;;;5037317;28;20054;-80
2021/05/15 01:16:47;;;;;;;;;;;11.20;99.90;;;;;;5033373;28;19916;-80
2021/05/15 01:19:14;;;;;;;;;;;11.20;99.90;;;;;;5051553;28;19940;-80
2021/05/15 01:21:40;;;;;;;;;;;11.20;99.90;;;;;;5035198;28;19913;-80
2021/05/15 01:24:05;;;;;;;;;;;11.10;99.90;;;;;;5038258;28;19924;-80
2021/05/15 01:26:32;;;;;;;;;;;11.10;99.90;;;;;;5049664;28;20392;-80
2021/05/15 01:29:02;;;;;;;;;;;11.10;99.90;;;;;;5033732;28;19913;-80
2021/05/15 01:31:29;;;;;;;;;;;11.10;99.90;;;;;;5040145;28;20007;-80
2021/05/15 01:33:54;;;;;;;;;;;11.10;99.90;;;;;;5034678;28;19917;-80
2021/05/15 01:36:20;;;;;;;;;;;11.00;99.90;;;;;;5041345;28;19913;-80
2021/05/15 01:38:46;;;;;;;;;;;11.00;99.90;;;;;;5054548;28;20312;-81
2021/05/15 01:41:13;;;;;;;;;;;11.00;99.90;;;;;;5020659;28;20313;-80
2021/05/15 01:43:38;;;;;;;;;;;11.00;99.90;;;;;;5042580;28;19917;-80
2021/05/15 01:46:05;;;;;;;;;;;11.00;99.90;;;;;;5047072;28;19955;-80
2021/05/15 01:48:30;;;;;;;;;;;11.10;99.90;;;;;;5038892;28;19921;-77
2021/05/15 01:51:03;;;;;;;;;;;11.10;99.90;;;;;;5045535;28;19983;-81
2021/05/15 01:53:30;;;;;;;;;;;11.00;99.90;;;;;;5036199;28;19913;-80
2021/05/15 01:55:56;;;;;;;;;;;11.00;99.90;;;;;;5036147;28;19956;-81
2021/05/15 01:58:22;;;;;;;;;;;11.00;99.90;;;;;;5037997;28;20280;-80
2021/05/15 02:00:47;;;;;;;;;;;11.00;99.90;;;;;;5036297;28;19921;-80
2021/05/15 02:03:13;;;;;;;;;;;11.10;99.90;;;;;;5022919;28;19928;-80
2021/05/15 02:05:39;;;;;;;;;;;11.10;99.90;;;;;;5022620;28;19944;-80
2021/05/15 02:08:05;;;;;;;;;;;11.00;99.90;;;;;;5032026;28;19913;-80
2021/05/15 02:10:30;;;;;;;;;;;11.10;99.90;;;;;;5018516;28;19919;-81
2021/05/15 02:12:56;;;;;;;;;;;11.00;99.90;;;;;;5051380;28;20007;-79
2021/05/15 02:15:21;;;;;;;;;;;11.10;99.90;;;;;;5043811;28;20334;-79
2021/05/15 02:17:47;;;;;;;;;;;11.00;99.90;;;;;;5041673;28;20007;-80
2021/05/15 02:20:13;;;;;;;;;;;11.00;99.90;;;;;;5044263;28;19920;-80
2021/05/15 02:22:38;;;;;;;;;;;10.90;99.90;;;;;;5053486;28;19913;-79
2021/05/15 02:25:04;;;;;;;;;;;11.00;99.90;;;;;;5049047;28;19947;-80
2021/05/15 02:27:30;;;;;;;;;;;11.10;99.90;;;;;;5040517;28;19913;-80
2021/05/15 02:29:55;;;;;;;;;;;11.00;99.90;;;;;;5025213;28;20428;-80
2021/05/15 02:32:20;;;;;;;;;;;10.90;99.90;;;;;;5036008;28;19956;-80
2021/05/15 02:34:46;;;;;;;;;;;10.90;99.90;;;;;;5058014;28;19913;-80
2021/05/15 02:37:11;;;;;;;;;;;10.90;99.90;;;;;;5029640;28;19917;-80
2021/05/15 02:39:37;;;;;;;;;;;10.90;99.90;;;;;;5050857;28;20380;-80
2021/05/15 02:42:02;;;;;;;;;;;10.90;99.90;;;;;;5037988;28;19914;-81
2021/05/15 02:44:28;;;;;;;;;;;11.00;99.90;;;;;;5021791;28;19970;-81
2021/05/15 02:46:53;;;;;;;;;;;10.80;99.90;;;;;;5034058;28;20451;-81
2021/05/15 02:49:19;;;;;;;;;;;10.80;99.90;;;;;;5048893;28;19917;-81
2021/05/15 02:51:44;;;;;;;;;;;10.80;99.90;;;;;;5017480;28;20340;-82
2021/05/15 02:54:10;;;;;;;;;;;10.70;99.90;;;;;;5046369;28;20315;-79
2021/05/15 02:56:35;;;;;;;;;;;10.70;99.90;;;;;;5036609;28;19917;-81
2021/05/15 02:59:01;;;;;;;;;;;10.60;99.90;;;;;;5040692;28;19956;-80
2021/05/15 03:01:27;;;;;;;;;;;10.60;99.90;;;;;;5019571;28;20047;-80
2021/05/15 03:03:52;;;;;;;;;;;10.60;99.90;;;;;;5051554;28;20366;-80
2021/05/15 03:06:18;;;;;;;;;;;10.60;99.90;;;;;;5041987;28;19913;-80
2021/05/15 03:08:44;;;;;;;;;;;10.60;99.90;;;;;;5049834;28;20391;-79
2021/05/15 03:11:09;;;;;;;;;;;10.60;99.90;;;;;;5046264;28;19914;-79
2021/05/15 03:13:35;;;;;;;;;;;10.60;99.90;;;;;;5043446;28;19917;-80
2021/05/15 03:16:00;;;;;;;;;;;10.60;99.90;;;;;;5051678;28;19920;-80
2021/05/15 03:18:26;;;;;;;;;;;10.60;99.90;;;;;;5041079;28;20027;-79
2021/05/15 03:20:51;;;;;;;;;;;10.60;99.90;;;;;;5051157;28;19920;-80
2021/05/15 03:23:17;;;;;;;;;;;10.60;99.90;;;;;;5038577;28;19924;-79
2021/05/15 03:25:42;;;;;;;;;;;10.60;99.90;;;;;;5068017;28;19913;-80
2021/05/15 03:28:07;;;;;;;;;;;10.60;99.90;;;;;;5070765;28;19920;-78
2021/05/15 03:30:33;;;;;;;;;;;10.70;99.90;;;;;;5039868;28;19928;-77
2021/05/15 03:32:59;;;;;;;;;;;10.60;99.90;;;;;;5056234;28;19914;-79
2021/05/15 03:35:26;;;;;;;;;;;10.60;99.90;;;;;;5069642;28;19913;-79
2021/05/15 03:37:51;;;;;;;;;;;10.60;99.90;;;;;;5051228;28;19912;-76
2021/05/15 03:40:17;;;;;;;;;;;10.60;99.90;;;;;;5075530;28;19931;-80
2021/05/15 03:42:43;;;;;;;;;;;10.60;99.90;;;;;;5043392;28;19901;-79
2021/05/15 03:45:09;;;;;;;;;;;10.60;99.90;;;;;;5060034;28;19908;-80
2021/05/15 03:47:34;;;;;;;;;;;10.60;99.90;;;;;;5057758;28;19965;-78
2021/05/15 03:50:00;;;;;;;;;;;10.60;99.90;;;;;;5060415;28;20007;-79
2021/05/15 03:52:26;;;;;;;;;;;10.70;99.90;;;;;;5044241;28;19951;-79
2021/05/15 03:54:51;;;;;;;;;;;10.70;99.90;;;;;;5058254;28;19944;-78
2021/05/15 03:57:17;;;;;;;;;;;10.60;99.90;;;;;;5050383;28;19920;-79
2021/05/15 03:59:42;;;;;;;;;;;10.60;99.90;;;;;;5021057;28;19913;-79
2021/05/15 04:02:08;;;;;;;;;;;10.70;99.90;;;;;;5029837;28;20284;-79
2021/05/15 04:04:36;;;;;;;;;;;10.60;99.90;;;;;;5019019;28;19917;-79
2021/05/15 04:07:02;;;;;;;;;;;10.60;99.90;;;;;;5043957;28;19913;-79
2021/05/15 04:09:27;;;;;;;;;;;10.60;99.90;;;;;;5027284;28;19967;-79
2021/05/15 04:11:53;;;;;;;;;;;10.60;99.90;;;;;;5018796;28;20011;-80
2021/05/15 04:17:27;;;;;;;;;;;10.60;99.90;;;;;;4963071;28;19953;-80
2021/05/15 04:19:53;;;;;;;;;;;10.50;99.90;;;;;;5033547;28;19919;-81
2021/05/15 04:22:18;;;;;;;;;;;10.50;99.90;;;;;;5029796;28;19921;-80
2021/05/15 04:24:44;;;;;;;;;;;10.50;99.90;;;;;;5037818;28;19917;-80
2021/05/15 04:27:09;;;;;;;;;;;10.50;99.90;;;;;;5041921;28;20385;-79
2021/05/15 04:29:35;;;;;;;;;;;10.60;99.90;;;;;;5034068;28;20285;-80
2021/05/15 04:32:00;;;;;;;;;;;10.60;99.90;;;;;;5038930;28;19913;-79
2021/05/15 04:34:28;;;;;;;;;;;10.70;99.90;;;;;;5054015;28;19920;-79
2021/05/15 04:36:54;;;;;;;;;;;10.70;99.90;;;;;;5046435;28;20281;-79
2021/05/15 04:39:19;;;;;;;;;;;10.80;99.90;;;;;;5048994;28;19920;-79
2021/05/15 04:41:45;;;;;;;;;;;10.80;99.90;;;;;;5033705;28;20381;-79
2021/05/15 04:44:10;;;;;;;;;;;10.70;99.90;;;;;;5049742;28;19943;-79
2021/05/15 04:46:36;;;;;;;;;;;10.70;99.90;;;;;;5053997;28;19913;-80
2021/05/15 04:49:01;;;;;;;;;;;10.80;99.90;;;;;;5020640;28;19966;-80
2021/05/15 04:51:27;;;;;;;;;;;10.80;99.90;;;;;;5041822;28;19932;-80
2021/05/15 04:53:52;;;;;;;;;;;10.80;99.90;;;;;;5033647;28;20345;-80
2021/05/15 04:56:18;;;;;;;;;;;10.80;99.90;;;;;;5039431;28;19913;-80
2021/05/15 04:58:44;;;;;;;;;;;10.90;99.90;;;;;;5021131;28;19913;-80
2021/05/15 05:01:09;;;;;;;;;;;10.80;99.90;;;;;;5025001;28;19913;-80
2021/05/15 05:03:35;;;;;;;;;;;10.90;99.90;;;;;;5015109;28;19928;-80
2021/05/15 05:06:01;;;;;;;;;;;10.90;99.90;;;;;;5024600;28;19913;-80
2021/05/15 05:08:26;;;;;;;;;;;11.00;99.90;;;;;;5037739;28;20007;-80
2021/05/15 05:10:52;;;;;;;;;;;11.00;99.90;;;;;;5033416;28;19920;-80
2021/05/15 05:13:18;;;;;;;;;;;11.00;99.90;;;;;;5024286;28;20015;-80
2021/05/15 05:15:43;;;;;;;;;;;11.00;99.90;;;;;;5045364;28;19959;-79
2021/05/15 05:18:09;;;;;;;;;;;11.00;99.90;;;;;;5045587;28;19927;-80
2021/05/15 05:20:34;;;;;;;;;;;11.00;99.90;;;;;;5037967;28;19991;-80
2021/05/15 05:23:00;;;;;;;;;;;11.00;99.90;;;;;;5048659;28;20266;-80
2021/05/15 05:25:25;;;;;;;;;;;11.10;99.90;;;;;;5030946;28;19913;-80
2021/05/15 05:27:51;;;;;;;;;;;11.10;99.90;;;;;;5038041;28;19913;-80
2021/05/15 05:30:18;;;;;;;;;;;11.10;99.90;;;;;;5053717;28;19959;-80
2021/05/15 05:32:44;;;;;;;;;;;11.10;99.90;;;;;;5043646;28;20280;-81
2021/05/15 05:35:10;;;;;;;;;;;11.20;99.90;;;;;;5054099;28;19912;-81
2021/05/15 05:37:35;;;;;;;;;;;11.30;99.90;;;;;;5041837;28;19913;-80
2021/05/15 05:40:02;;;;;;;;;;;11.30;99.90;;;;;;5027879;28;19913;-80
2021/05/15 05:42:28;;;;;;;;;;;11.30;99.90;;;;;;5036661;28;19913;-80
2021/05/15 05:44:53;;;;;;;;;;;11.40;99.90;;;;;;5051704;28;19924;-80
2021/05/15 05:47:19;;;;;;;;;;;11.40;99.90;;;;;;5025174;28;19913;-81
2021/05/15 05:49:44;;;;;;;;;;;11.50;99.90;;;;;;5036270;28;20383;-80
2021/05/15 05:52:10;;;;;;;;;;;11.60;99.90;;;;;;5064195;28;19913;-80
2021/05/15 05:54:35;;;;;;;;;;;11.60;99.90;;;;;;5035307;28;20434;-80
2021/05/15 05:57:01;;;;;;;;;;;11.60;99.90;;;;;;5040929;28;19920;-81
2021/05/15 05:59:26;;;;;;;;;;;11.50;99.90;;;;;;5035419;28;20048;-80
2021/05/15 06:01:52;;;;;;;;;;;11.50;99.90;;;;;;5034840;28;19912;-80
2021/05/15 06:04:17;;;;;;;;;;;11.50;99.90;;;;;;5026527;28;19932;-81
2021/05/15 06:06:43;;;;;;;;;;;11.50;99.90;;;;;;5028498;28;19967;-81
2021/05/15 06:09:08;;;;;;;;;;;11.40;99.90;;;;;;5050994;28;19928;-81
2021/05/15 06:11:34;;;;;;;;;;;11.40;99.90;;;;;;5072585;28;19932;-80
2021/05/15 06:13:59;;;;;;;;;;;11.50;99.90;;;;;;5074906;28;19913;-80
2021/05/15 06:16:25;;;;;;;;;;;11.40;99.90;;;;;;5064428;28;19948;-78
2021/05/15 06:18:50;;;;;;;;;;;11.40;99.90;;;;;;5068282;28;19917;-80
2021/05/15 06:21:16;;;;;;;;;;;11.40;99.90;;;;;;5076592;28;19901;-79
2021/05/15 06:23:41;;;;;;;;;;;11.50;99.90;;;;;;5060309;28;19936;-78
2021/05/15 06:26:10;;;;;;;;;;;11.60;99.90;;;;;;5072461;28;21047;-80
2021/05/15 06:28:36;;;;;;;;;;;11.60;99.90;;;;;;5060596;28;19936;-80
2021/05/15 06:31:02;;;;;;;;;;;11.60;99.90;;;;;;5060419;28;19901;-79
2021/05/15 06:33:28;;;;;;;;;;;11.70;99.90;;;;;;5059380;28;19917;-80
2021/05/15 06:35:53;;;;;;;;;;;11.70;99.90;;;;;;5038619;28;20000;-80
2021/05/15 06:38:19;;;;;;;;;;;11.70;99.90;;;;;;5072323;28;19912;-81
2021/05/15 06:40:45;;;;;;;;;;;11.70;99.90;;;;;;5046722;28;20388;-79
2021/05/15 06:43:10;;;;;;;;;;;11.70;99.90;;;;;;5053040;28;19925;-80
2021/05/15 06:45:36;;;;;;;;;;;11.70;99.90;;;;;;5055040;28;19913;-80
2021/05/15 06:48:01;;;;;;;;;;;11.70;99.90;;;;;;5056212;28;20020;-80
2021/05/15 06:50:27;;;;;;;;;;;11.80;99.90;;;;;;5050368;28;19925;-80
2021/05/15 06:52:52;;;;;;;;;;;11.80;99.90;;;;;;5025223;28;20463;-80
2021/05/15 06:55:18;;;;;;;;;;;11.90;99.90;;;;;;5045255;28;20011;-80
2021/05/15 06:57:43;;;;;;;;;;;11.80;99.90;;;;;;5039610;28;20004;-81
2021/05/15 07:00:09;;;;;;;;;;;11.90;99.90;;;;;;5053408;28;19912;-80
2021/05/15 07:02:34;;;;;;;;;;;11.90;99.90;;;;;;5035737;28;19917;-79
2021/05/15 07:05:00;;;;;;;;;;;11.90;99.90;;;;;;5043591;28;19919;-80
2021/05/15 07:07:26;;;;;;;;;;;11.90;99.90;;;;;;5043263;28;19920;-80
2021/05/15 07:09:51;;;;;;;;;;;12.00;99.90;;;;;;5033458;28;19917;-80
2021/05/15 07:12:17;;;;;;;;;;;12.00;99.90;;;;;;5024544;28;20024;-81
2021/05/15 07:14:44;;;;;;;;;;;12.00;99.90;;;;;;5035236;28;19924;-79
2021/05/15 07:17:09;;;;;;;;;;;12.00;99.90;;;;;;5034870;28;19921;-79
2021/05/15 07:19:35;;;;;;;;;;;12.00;99.90;;;;;;5025363;28;20285;-79
2021/05/15 07:22:00;;;;;;;;;;;12.00;99.90;;;;;;5025445;28;19960;-80
2021/05/15 07:24:26;;;;;;;;;;;12.00;99.90;;;;;;5041261;28;19917;-80
2021/05/15 07:26:51;;;;;;;;;;;12.00;99.90;;;;;;5033334;28;20269;-80
2021/05/15 07:29:17;;;;;;;;;;;12.00;99.90;;;;;;5021816;28;19948;-81
2021/05/15 07:31:42;;;;;;;;;;;12.00;99.90;;;;;;5023764;28;19917;-80
2021/05/15 07:34:08;;;;;;;;;;;12.00;99.90;;;;;;5047225;28;20011;-80
2021/05/15 07:36:34;;;;;;;;;;;12.10;99.90;;;;;;5022330;28;19935;-80
2021/05/15 07:38:59;;;;;;;;;;;12.10;99.90;;;;;;5053760;28;19920;-81
2021/05/15 07:41:25;;;;;;;;;;;12.10;99.90;;;;;;5023057;28;19921;-81
2021/05/15 07:43:51;;;;;;;;;;;12.20;99.90;;;;;;5028656;28;19917;-80
2021/05/15 07:46:17;;;;;;;;;;;12.20;99.90;;;;;;5039941;28;19913;-80
2021/05/15 07:48:43;;;;;;;;;;;12.30;99.90;;;;;;5033306;28;19921;-79
2021/05/15 07:51:21;;;;;;;;;;;12.30;99.90;;;;;;5033819;28;19922;-80
2021/05/15 07:53:50;;;;;;;;;;;12.40;99.90;;;;;;5024826;28;19920;-81
2021/05/15 07:56:16;;;;;;;;;;;12.50;99.90;;;;;;5032108;28;19913;-82
2021/05/15 07:58:42;;;;;;;;;;;12.60;99.90;;;;;;5026309;28;19921;-82
2021/05/15 08:01:07;;;;;;;;;;;12.70;99.90;;;;;;5029779;28;20361;-82
2021/05/15 08:03:33;;;;;;;;;;;12.80;99.90;;;;;;5021032;28;19917;-83
2021/05/15 08:05:58;;;;;;;;;;;13.00;99.90;;;;;;5020863;28;19913;-83
2021/05/15 08:08:24;;;;;;;;;;;13.20;99.90;;;;;;5015790;28;19968;-82
2021/05/15 08:10:50;;;;;;;;;;;13.30;99.90;;;;;;5033498;28;19963;-83
2021/05/15 08:13:16;;;;;;;;;;;13.30;99.90;;;;;;5016705;28;19917;-81
2021/05/15 08:15:42;;;;;;;;;;;13.30;99.90;;;;;;5016129;28;19913;-83
2021/05/15 08:18:08;;;;;;;;;;;13.20;99.90;;;;;;5034534;28;19917;-83
2021/05/15 08:20:33;;;;;;;;;;;13.20;99.90;;;;;;5034289;28;19913;-83
2021/05/15 08:22:59;;;;;;;;;;;13.10;99.90;;;;;;5035736;28;20011;-84
2021/05/15 08:25:25;;;;;;;;;;;13.10;99.90;;;;;;5016935;28;19917;-82
2021/05/15 08:27:53;;;;;;;;;;;13.10;99.90;;;;;;5034587;28;19920;-83
2021/05/15 08:30:20;;;;;;;;;;;13.20;99.90;;;;;;5035943;28;19913;-83
2021/05/15 08:32:48;;;;;;;;;;;13.30;99.90;;;;;;5029238;28;19917;-82
2021/05/15 08:35:14;;;;;;;;;;;13.30;99.90;;;;;;5051989;28;19981;-81
2021/05/15 08:37:40;;;;;;;;;;;13.30;99.90;;;;;;5052783;28;19960;-81
2021/05/15 08:40:07;;;;;;;;;;;13.30;99.90;;;;;;5054374;28;19897;-80
2021/05/15 08:42:37;;;;;;;;;;;13.30;99.90;;;;;;5039730;28;19914;-79
2021/05/15 08:45:03;;;;;;;;;;;13.30;99.90;;;;;;5032582;28;19924;-80
2021/05/15 08:47:29;;;;;;;;;;;13.40;99.90;;;;;;5040236;28;19919;-79
2021/05/15 08:49:55;;;;;;;;;;;13.50;99.90;;;;;;5042585;28;19988;-79
2021/05/15 08:52:21;;;;;;;;;;;13.40;99.90;;;;;;5041226;28;20399;-78
2021/05/15 08:54:46;;;;;;;;;;;13.50;99.90;;;;;;5037777;28;19913;-78
2021/05/15 08:57:12;;;;;;;;;;;13.70;99.90;;;;;;5002418;28;19920;-77
2021/05/15 08:59:37;;;;;;;;;;;13.80;99.90;;;;;;5051850;28;20319;-78
2021/05/15 09:02:03;;;;;;;;;;;14.00;99.90;;;;;;5037933;28;19994;-79
2021/05/15 09:04:28;;;;;;;;;;;14.10;99.90;;;;;;5056215;28;20012;-81
2021/05/15 09:06:54;;;;;;;;;;;14.40;99.90;;;;;;5054360;28;19912;-79
2021/05/15 09:09:19;;;;;;;;;;;14.60;99.90;;;;;;5058616;28;20323;-80
2021/05/15 09:11:46;;;;;;;;;;;14.90;99.90;;;;;;5025215;28;20016;-79
2021/05/15 09:14:13;;;;;;;;;;;14.90;99.90;;;;;;5020192;28;19928;-81
2021/05/15 09:16:45;;;;;;;;;;;15.00;99.90;;;;;;5038718;28;19914;-79
2021/05/15 09:19:17;;;;;;;;;;;14.90;99.90;;;;;;5038733;28;19913;-80
2021/05/15 09:21:52;;;;;;;;;;;15.00;99.90;;;;;;5021379;28;19913;-81
2021/05/15 09:24:25;;;;;;;;;;;15.40;99.90;;;;;;5025222;28;19936;-81
2021/05/15 09:26:51;;;;;;;;;;;15.50;99.90;;;;;;5039765;28;19928;-80
2021/05/15 09:29:16;;;;;;;;;;;15.60;99.90;;;;;;5040479;28;19913;-80
2021/05/15 09:31:45;;;;;;;;;;;15.60;99.90;;;;;;5036718;28;19912;-81
2021/05/15 09:34:11;;;;;;;;;;;15.50;99.90;;;;;;5041343;28;19921;-83
2021/05/15 09:36:38;;;;;;;;;;;15.40;99.90;;;;;;5036704;28;19920;-79
2021/05/15 09:39:03;;;;;;;;;;;15.40;99.90;;;;;;5036717;28;19913;-81
2021/05/15 09:41:37;;;;;;;;;;;15.40;99.90;;;;;;5036690;28;20403;-82
2021/05/15 09:44:03;;;;;;;;;;;15.30;99.90;;;;;;5018653;28;19924;-78
2021/05/15 09:46:31;;;;;;;;;;;15.20;99.90;;;;;;5036608;28;20048;-81
2021/05/15 09:48:57;;;;;;;;;;;15.20;99.90;;;;;;5037316;28;19913;-81
2021/05/15 09:51:22;;;;;;;;;;;15.20;99.90;;;;;;5036193;28;19928;-79
2021/05/15 09:53:48;;;;;;;;;;;15.10;99.90;;;;;;5035701;28;19913;-80
2021/05/15 09:56:13;;;;;;;;;;;14.90;99.90;;;;;;5034185;28;19913;-77
2021/05/15 09:58:40;;;;;;;;;;;14.90;99.90;;;;;;5035786;28;20047;-78
2021/05/15 10:01:07;;;;;;;;;;;15.00;99.90;;;;;;5035913;28;19913;-78
2021/05/15 10:03:36;;;;;;;;;;;15.20;99.90;;;;;;5018427;28;19924;-78
2021/05/15 10:06:05;;;;;;;;;;;15.20;99.90;;;;;;5018427;28;20018;-78
2021/05/15 10:08:31;;;;;;;;;;;15.10;99.90;;;;;;5036178;28;19913;-78
2021/05/15 10:10:58;;;;;;;;;;;15.20;99.90;;;;;;5018495;28;19913;-78
2021/05/15 10:13:24;;;;;;;;;;;15.20;99.90;;;;;;5036095;28;20028;-78
2021/05/15 10:15:49;;;;;;;;;;;15.20;99.90;;;;;;5018048;28;19963;-78
2021/05/15 10:18:15;;;;;;;;;;;15.10;99.90;;;;;;5035637;28;19917;-79
2021/05/15 10:20:41;;;;;;;;;;;15.00;99.90;;;;;;5016626;28;20343;-78
2021/05/15 10:23:20;;;;;;;;;;;15.00;99.90;;;;;;5034046;28;20384;-77
2021/05/15 10:25:46;;;;;;;;;;;15.00;99.90;;;;;;5017522;28;19921;-78
2021/05/15 10:28:15;;;;;;;;;;;15.10;99.90;;;;;;5034346;28;20391;-78
2021/05/15 10:30:40;;;;;;;;;;;15.20;99.90;;;;;;5035444;28;19967;-77
2021/05/15 10:33:09;;;;;;;;;;;15.30;99.90;;;;;;5035702;28;19917;-78
2021/05/15 10:35:39;;;;;;;;;;;15.40;99.90;;;;;;5034816;28;20285;-76
2021/05/15 10:38:13;;;;;;;;;;;15.40;99.90;;;;;;5033069;28;19913;-78
2021/05/15 10:41:01;;;;;;;;;;;15.40;99.90;;;;;;5035749;28;19964;-78
2021/05/15 10:43:31;;;;;;;;;;;15.50;99.90;;;;;;5029451;28;19927;-77
2021/05/15 10:45:56;;;;;;;;;;;15.70;99.90;;;;;;5048452;28;19913;-78
2021/05/15 10:48:25;;;;;;;;;;;15.80;99.90;;;;;;5017026;28;20401;-78
2021/05/15 10:50:50;;;;;;;;;;;15.80;99.90;;;;;;4999628;28;20325;-77
2021/05/15 10:53:19;;;;;;;;;;;15.80;99.90;;;;;;5014208;28;19920;-77
2021/05/15 10:55:58;;;;;;;;;;;15.80;99.90;;;;;;5006730;28;19986;-78
2021/05/15 10:58:36;;;;;;;;;;;15.80;99.90;;;;;;5006988;28;20353;-78
2021/05/15 11:01:28;;;;;;;;;;;15.90;99.90;;;;;;5007712;28;19921;-77
2021/05/15 11:03:54;;;;;;;;;;;16.20;99.90;;;;;;5008257;28;19975;-78
2021/05/15 11:06:20;;;;;;;;;;;16.50;99.90;;;;;;5006267;28;19972;-78
2021/05/15 11:08:59;;;;;;;;;;;16.50;99.90;;;;;;5007816;28;20316;-78
2021/05/15 11:11:40;;;;;;;;;;;16.60;99.90;;;;;;5014860;28;19925;-77
2021/05/15 11:14:26;;;;;;;;;;;16.60;99.90;;;;;;5013625;28;19914;-78
2021/05/15 11:17:03;;;;;;;;;;;16.40;99.90;;;;;;5023882;28;19917;-78
2021/05/15 11:19:29;;;;;;;;;;;16.20;99.90;;;;;;5024663;28;19918;-78
2021/05/15 11:21:55;;;;;;;;;;;16.30;99.90;;;;;;5024107;28;20008;-77
2021/05/15 11:24:31;;;;;;;;;;;16.20;99.90;;;;;;5025754;28;19917;-78
2021/05/15 11:26:57;;;;;;;;;;;16.10;99.90;;;;;;5023898;28;20321;-79
2021/05/15 11:29:35;;;;;;;;;;;16.00;99.90;;;;;;5025853;28;19914;-78
2021/05/15 11:32:04;;;;;;;;;;;15.80;99.90;;;;;;5032163;28;19967;-77
2021/05/15 11:34:30;;;;;;;;;;;15.70;99.90;;;;;;5037097;28;19914;-78
2021/05/15 11:36:55;;;;;;;;;;;15.60;99.90;;;;;;5034987;28;19920;-76
2021/05/15 11:39:22;;;;;;;;;;;15.40;99.90;;;;;;5030236;28;19949;-78
2021/05/15 11:41:47;;;;;;;;;;;15.30;99.90;;;;;;5030846;28;19906;-79
2021/05/15 11:44:13;;;;;;;;;;;15.20;99.90;;;;;;5026302;28;20759;-76
2021/05/15 11:46:45;;;;;;;;;;;15.20;99.90;;;;;;5012659;28;20151;-77
2021/05/15 11:49:23;;;;;;;;;;;15.10;99.90;;;;;;5012925;28;19969;-77
2021/05/15 11:51:59;;;;;;;;;;;15.00;99.90;;;;;;5026965;28;19917;-78
2021/05/15 11:54:24;;;;;;;;;;;15.00;99.90;;;;;;5018813;28;19984;-78
2021/05/15 11:56:51;;;;;;;;;;;14.90;99.90;;;;;;5014652;28;20395;-79
2021/05/15 11:59:17;;;;;;;;;;;14.90;99.90;;;;;;5016964;28;20266;-78
2021/05/15 12:01:43;;;;;;;;;;;15.00;99.90;;;;;;5014060;28;20464;-78
2021/05/15 12:04:17;;;;;;;;;;;15.00;99.90;;;;;;5012742;28;20009;-78
2021/05/15 12:06:44;;;;;;;;;;;15.10;99.90;;;;;;5008078;28;19921;-78
2021/05/15 12:09:13;;;;;;;;;;;14.90;99.90;;;;;;5005030;28;19914;-78
2021/05/15 12:11:38;;;;;;;;;;;14.90;99.90;;;;;;5007945;28;20344;-77
2021/05/15 12:14:04;;;;;;;;;;;14.90;99.90;;;;;;5007267;28;19953;-79
2021/05/15 12:16:33;;;;;;;;;;;14.80;99.90;;;;;;5007193;28;19968;-77
2021/05/15 12:18:58;;;;;;;;;;;14.80;99.90;;;;;;5005203;28;20337;-77
2021/05/15 12:21:27;;;;;;;;;;;14.70;99.90;;;;;;5007304;28;19917;-78
2021/05/15 12:23:53;;;;;;;;;;;14.50;99.90;;;;;;5008079;28;19917;-77
2021/05/15 12:26:18;;;;;;;;;;;14.50;99.90;;;;;;5006141;28;19921;-77
2021/05/15 12:28:47;;;;;;;;;;;14.40;99.90;;;;;;5010843;28;19919;-76
2021/05/15 12:31:24;;;;;;;;;;;14.40;99.90;;;;;;5013167;28;20004;-78
2021/05/15 12:33:50;;;;;;;;;;;14.40;99.90;;;;;;5012605;28;20445;-79
2021/05/15 12:36:15;;;;;;;;;;;14.50;99.90;;;;;;5009182;28;19921;-78
2021/05/15 12:38:48;;;;;;;;;;;14.70;99.90;;;;;;5013717;28;20316;-78
2021/05/15 12:41:17;;;;;;;;;;;14.80;99.90;;;;;;4993992;28;19920;-78
2021/05/15 12:43:45;;;;;;;;;;;14.90;99.90;;;;;;5012219;28;19917;-78
2021/05/15 12:46:18;;;;;;;;;;;15.00;99.90;;;;;;5010981;28;20289;-79
2021/05/15 12:48:53;;;;;;;;;;;15.10;99.90;;;;;;5040821;28;19920;-79
2021/05/15 12:51:25;;;;;;;;;;;15.20;99.90;;;;;;5018205;28;20398;-78
2021/05/15 12:53:51;;;;;;;;;;;15.20;99.90;;;;;;5025845;28;20004;-79
2021/05/15 12:56:26;;;;;;;;;;;15.40;99.90;;;;;;5008178;28;20347;-78
2021/05/15 12:58:52;;;;;;;;;;;15.60;99.90;;;;;;5027672;28;19917;-78
2021/05/15 13:01:17;;;;;;;;;;;15.80;99.90;;;;;;5025235;28;20004;-78
2021/05/15 13:03:50;;;;;;;;;;;15.70;99.90;;;;;;5025497;28;19933;-77
2021/05/15 13:06:16;;;;;;;;;;;15.70;99.90;;;;;;5024429;28;19917;-76
2021/05/15 13:08:42;;;;;;;;;;;15.70;99.90;;;;;;5025252;28;20460;-79
2021/05/15 13:11:11;;;;;;;;;;;15.80;99.90;;;;;;5025593;28;20068;-79
2021/05/15 13:13:37;;;;;;;;;;;15.80;99.90;;;;;;5026199;28;20000;-78
2021/05/15 13:16:03;;;;;;;;;;;15.70;99.90;;;;;;5020004;28;19964;-78
2021/05/15 13:18:28;;;;;;;;;;;15.70;99.90;;;;;;5033397;28;19963;-79
2021/05/15 13:20:54;;;;;;;;;;;15.70;99.90;;;;;;5033659;28;19921;-78
2021/05/15 13:23:19;;;;;;;;;;;15.60;99.90;;;;;;5033725;28;19917;-78
2021/05/15 13:25:45;;;;;;;;;;;15.60;99.90;;;;;;5034286;28;19971;-78
2021/05/15 13:28:11;;;;;;;;;;;15.60;99.90;;;;;;5034008;28;19909;-78
2021/05/15 13:30:37;;;;;;;;;;;15.70;99.90;;;;;;5036149;28;19909;-78
2021/05/15 13:33:02;;;;;;;;;;;15.60;99.90;;;;;;5036991;28;19916;-79
2021/05/15 13:35:28;;;;;;;;;;;15.60;99.90;;;;;;5018995;28;20369;-78
2021/05/15 13:37:53;;;;;;;;;;;15.60;99.90;;;;;;5036959;28;19909;-78
2021/05/15 13:40:19;;;;;;;;;;;15.90;99.90;;;;;;5037179;28;19909;-79
2021/05/15 13:42:45;;;;;;;;;;;16.20;99.90;;;;;;5019175;28;19913;-79
2021/05/15 13:45:10;;;;;;;;;;;16.50;99.90;;;;;;5019410;28;19964;-79
2021/05/15 13:47:36;;;;;;;;;;;16.60;99.90;;;;;;5036753;28;19916;-79
2021/05/15 13:50:02;;;;;;;;;;;16.50;99.90;;;;;;5036489;28;19912;-78
2021/05/15 13:52:27;;;;;;;;;;;16.30;99.90;;;;;;5036766;28;20000;-78
2021/05/15 13:54:53;;;;;;;;;;;16.10;99.90;;;;;;5038101;28;19917;-79
2021/05/15 13:57:18;;;;;;;;;;;15.80;99.90;;;;;;5018692;28;20354;-80
2021/05/15 13:59:44;;;;;;;;;;;15.60;99.90;;;;;;5036526;28;20365;-79
2021/05/15 14:02:09;;;;;;;;;;;15.30;99.90;;;;;;5018342;28;20369;-78
2021/05/15 14:04:35;;;;;;;;;;;15.10;99.90;;;;;;5036457;28;19925;-78
2021/05/15 14:07:00;;;;;;;;;;;14.60;99.90;;;;;;5018267;28;19916;-77
2021/05/15 14:09:26;;;;;;;;;;;14.00;99.90;;;;;;5034786;28;20047;-76
2021/05/15 14:11:51;;;;;;;;;;;13.50;99.90;;;;;;5035995;28;20051;-75
2021/05/15 14:14:17;;;;;;;;;;;13.10;99.90;;;;;;5035888;28;19916;-74
2021/05/15 14:16:42;;;;;;;;;;;12.70;99.90;;;;;;5017864;28;19936;-74